sensor_id;sensor_type;location;lat;lon;timestamp;P1;durP1;ratioP1;P2;durP2;ratioP2
11541;SDS011;5827;49.482;7.716;2023-01-19T00:01:34;21.70;;;11.93;;
11541;SDS011;5827;49.482;7.716;2023-01-19T00:03:35;21.87;;;11.70;;
11541;SDS011;5827;49.482;7.716;2023-01-19T00:05:37;20.07;;;11.23;;
11541;SDS011;5827;49.482;7.716;2023-01-19T00:07:39;20.67;;;11.73;;
11541;SDS011;5827;49.482;7.716;2023-01-19T00:09:42;20.43;;;11.47;;
11541;SDS011;5827;49.482;7.716;2023-01-19T00:11:44;21.53;;;11.63;;
11541;SDS011;5827;49.482;7.716;2023-01-19T00:13:45;16.60;;;11.67;;
11541;SDS011;5827;49.482;7.716;2023-01-19T00:15:49;20.37;;;11.60;;
11541;SDS011;5827;49.482;7.716;2023-01-19T00:17:51;17.67;;;10.73;;
11541;SDS011;5827;49.482;7.716;2023-01-19T00:19:52;18.80;;;11.13;;
11541;SDS011;5827;49.482;7.716;2023-01-19T00:21:55;18.77;;;11.50;;
11541;SDS011;5827;49.482;7.716;2023-01-19T00:23:56;18.30;;;10.37;;
11541;SDS011;5827;49.482;7.716;2023-01-19T00:25:59;17.10;;;10.83;;
11541;SDS011;5827;49.482;7.716;2023-01-19T00:28:01;18.27;;;11.67;;
11541;SDS011;5827;49.482;7.716;2023-01-19T00:30:03;23.47;;;12.13;;
11541;SDS011;5827;49.482;7.716;2023-01-19T00:32:05;20.50;;;10.57;;
11541;SDS011;5827;49.482;7.716;2023-01-19T00:34:07;19.27;;;11.47;;
11541;SDS011;5827;49.482;7.716;2023-01-19T00:36:09;20.27;;;11.83;;
11541;SDS011;5827;49.482;7.716;2023-01-19T00:38:10;20.67;;;11.73;;
11541;SDS011;5827;49.482;7.716;2023-01-19T00:40:12;20.20;;;12.07;;
11541;SDS011;5827;49.482;7.716;2023-01-19T00:42:15;21.67;;;12.50;;
11541;SDS011;5827;49.482;7.716;2023-01-19T00:44:35;18.53;;;11.30;;
11541;SDS011;5827;49.482;7.716;2023-01-19T00:46:36;19.83;;;11.70;;
11541;SDS011;5827;49.482;7.716;2023-01-19T00:48:38;18.10;;;12.13;;
11541;SDS011;5827;49.482;7.716;2023-01-19T00:50:40;18.17;;;11.30;;
11541;SDS011;5827;49.482;7.716;2023-01-19T00:52:42;19.73;;;11.50;;
11541;SDS011;5827;49.482;7.716;2023-01-19T00:54:44;18.70;;;11.37;;
11541;SDS011;5827;49.482;7.716;2023-01-19T00:56:45;18.57;;;11.90;;
11541;SDS011;5827;49.482;7.716;2023-01-19T00:58:48;18.73;;;11.97;;
11541;SDS011;5827;49.482;7.716;2023-01-19T01:00:51;18.40;;;11.70;;
11541;SDS011;5827;49.482;7.716;2023-01-19T01:02:53;17.60;;;10.83;;
11541;SDS011;5827;49.482;7.716;2023-01-19T01:04:55;19.60;;;11.60;;
11541;SDS011;5827;49.482;7.716;2023-01-19T01:06:56;21.30;;;11.60;;
11541;SDS011;5827;49.482;7.716;2023-01-19T01:08:58;17.50;;;10.70;;
11541;SDS011;5827;49.482;7.716;2023-01-19T01:10:59;15.40;;;9.97;;
11541;SDS011;5827;49.482;7.716;2023-01-19T01:13:01;16.80;;;10.80;;
11541;SDS011;5827;49.482;7.716;2023-01-19T01:15:05;18.30;;;10.57;;
11541;SDS011;5827;49.482;7.716;2023-01-19T01:17:08;16.07;;;10.73;;
11541;SDS011;5827;49.482;7.716;2023-01-19T01:19:13;17.30;;;10.20;;
11541;SDS011;5827;49.482;7.716;2023-01-19T01:21:14;18.30;;;9.97;;
11541;SDS011;5827;49.482;7.716;2023-01-19T01:23:16;14.70;;;9.70;;
11541;SDS011;5827;49.482;7.716;2023-01-19T01:25:22;14.30;;;10.27;;
11541;SDS011;5827;49.482;7.716;2023-01-19T01:27:25;16.80;;;9.73;;
11541;SDS011;5827;49.482;7.716;2023-01-19T01:29:27;14.53;;;9.10;;
11541;SDS011;5827;49.482;7.716;2023-01-19T01:31:30;14.67;;;9.97;;
11541;SDS011;5827;49.482;7.716;2023-01-19T01:33:31;20.47;;;11.57;;
11541;SDS011;5827;49.482;7.716;2023-01-19T01:35:33;19.90;;;11.67;;
11541;SDS011;5827;49.482;7.716;2023-01-19T01:37:34;22.30;;;12.03;;
11541;SDS011;5827;49.482;7.716;2023-01-19T01:39:36;25.33;;;12.20;;
11541;SDS011;5827;49.482;7.716;2023-01-19T01:41:38;23.87;;;12.00;;
11541;SDS011;5827;49.482;7.716;2023-01-19T01:43:43;23.87;;;12.33;;
11541;SDS011;5827;49.482;7.716;2023-01-19T01:45:46;20.33;;;11.63;;
11541;SDS011;5827;49.482;7.716;2023-01-19T01:47:49;18.57;;;11.10;;
11541;SDS011;5827;49.482;7.716;2023-01-19T01:49:55;24.30;;;11.77;;
11541;SDS011;5827;49.482;7.716;2023-01-19T01:52:01;22.97;;;12.20;;
11541;SDS011;5827;49.482;7.716;2023-01-19T01:54:05;22.03;;;12.50;;
11541;SDS011;5827;49.482;7.716;2023-01-19T01:56:13;22.23;;;11.97;;
11541;SDS011;5827;49.482;7.716;2023-01-19T01:58:17;18.33;;;11.43;;
11541;SDS011;5827;49.482;7.716;2023-01-19T02:00:19;16.27;;;10.80;;
11541;SDS011;5827;49.482;7.716;2023-01-19T02:02:21;19.60;;;11.53;;
11541;SDS011;5827;49.482;7.716;2023-01-19T02:04:45;16.67;;;11.60;;
11541;SDS011;5827;49.482;7.716;2023-01-19T02:06:49;18.90;;;11.27;;
11541;SDS011;5827;49.482;7.716;2023-01-19T02:09:08;18.77;;;11.97;;
11541;SDS011;5827;49.482;7.716;2023-01-19T02:11:28;20.77;;;12.07;;
11541;SDS011;5827;49.482;7.716;2023-01-19T02:13:49;19.97;;;12.23;;
11541;SDS011;5827;49.482;7.716;2023-01-19T02:15:51;25.80;;;13.93;;
11541;SDS011;5827;49.482;7.716;2023-01-19T02:17:54;21.50;;;11.87;;
11541;SDS011;5827;49.482;7.716;2023-01-19T02:19:58;22.13;;;12.33;;
11541;SDS011;5827;49.482;7.716;2023-01-19T02:22:01;20.60;;;12.50;;
11541;SDS011;5827;49.482;7.716;2023-01-19T02:24:09;19.47;;;12.80;;
11541;SDS011;5827;49.482;7.716;2023-01-19T02:26:11;18.93;;;12.37;;
11541;SDS011;5827;49.482;7.716;2023-01-19T02:28:15;20.10;;;12.97;;
11541;SDS011;5827;49.482;7.716;2023-01-19T02:30:17;23.27;;;12.47;;
11541;SDS011;5827;49.482;7.716;2023-01-19T02:32:19;24.77;;;13.03;;
11541;SDS011;5827;49.482;7.716;2023-01-19T02:34:20;20.10;;;12.33;;
11541;SDS011;5827;49.482;7.716;2023-01-19T02:36:24;18.60;;;13.33;;
11541;SDS011;5827;49.482;7.716;2023-01-19T02:38:28;23.47;;;12.87;;
11541;SDS011;5827;49.482;7.716;2023-01-19T02:40:32;22.63;;;13.67;;
11541;SDS011;5827;49.482;7.716;2023-01-19T02:42:35;21.03;;;13.73;;
11541;SDS011;5827;49.482;7.716;2023-01-19T02:44:39;22.17;;;13.57;;
11541;SDS011;5827;49.482;7.716;2023-01-19T02:46:45;19.10;;;13.40;;
11541;SDS011;5827;49.482;7.716;2023-01-19T02:48:46;19.07;;;13.07;;
11541;SDS011;5827;49.482;7.716;2023-01-19T02:50:48;19.87;;;12.90;;
11541;SDS011;5827;49.482;7.716;2023-01-19T02:52:53;17.90;;;12.07;;
11541;SDS011;5827;49.482;7.716;2023-01-19T02:55:01;18.83;;;11.13;;
11541;SDS011;5827;49.482;7.716;2023-01-19T02:57:14;15.80;;;10.93;;
11541;SDS011;5827;49.482;7.716;2023-01-19T02:59:33;18.47;;;10.77;;
11541;SDS011;5827;49.482;7.716;2023-01-19T03:01:47;15.27;;;10.80;;
11541;SDS011;5827;49.482;7.716;2023-01-19T03:04:02;16.67;;;11.10;;
11541;SDS011;5827;49.482;7.716;2023-01-19T03:06:10;15.80;;;10.27;;
11541;SDS011;5827;49.482;7.716;2023-01-19T03:08:26;14.67;;;10.20;;
11541;SDS011;5827;49.482;7.716;2023-01-19T03:10:36;17.50;;;9.97;;
11541;SDS011;5827;49.482;7.716;2023-01-19T03:12:45;16.47;;;10.33;;
11541;SDS011;5827;49.482;7.716;2023-01-19T03:14:50;15.30;;;9.87;;
11541;SDS011;5827;49.482;7.716;2023-01-19T03:16:56;15.60;;;9.37;;
11541;SDS011;5827;49.482;7.716;2023-01-19T03:19:03;18.17;;;10.30;;
11541;SDS011;5827;49.482;7.716;2023-01-19T03:21:08;15.43;;;9.50;;
11541;SDS011;5827;49.482;7.716;2023-01-19T03:23:11;17.30;;;9.60;;
11541;SDS011;5827;49.482;7.716;2023-01-19T03:25:15;14.70;;;10.00;;
11541;SDS011;5827;49.482;7.716;2023-01-19T03:27:20;12.33;;;8.43;;
11541;SDS011;5827;49.482;7.716;2023-01-19T03:29:27;13.17;;;9.70;;
11541;SDS011;5827;49.482;7.716;2023-01-19T03:31:30;13.67;;;9.20;;
11541;SDS011;5827;49.482;7.716;2023-01-19T03:33:34;17.60;;;10.17;;
11541;SDS011;5827;49.482;7.716;2023-01-19T03:35:41;14.37;;;9.83;;
11541;SDS011;5827;49.482;7.716;2023-01-19T03:37:46;15.00;;;10.13;;
11541;SDS011;5827;49.482;7.716;2023-01-19T03:39:50;14.20;;;9.60;;
11541;SDS011;5827;49.482;7.716;2023-01-19T03:41:53;14.70;;;9.20;;
11541;SDS011;5827;49.482;7.716;2023-01-19T03:43:57;13.53;;;9.53;;
11541;SDS011;5827;49.482;7.716;2023-01-19T03:46:00;14.73;;;8.93;;
11541;SDS011;5827;49.482;7.716;2023-01-19T03:48:03;14.03;;;10.10;;
11541;SDS011;5827;49.482;7.716;2023-01-19T03:50:06;14.53;;;10.20;;
11541;SDS011;5827;49.482;7.716;2023-01-19T03:52:14;19.20;;;11.73;;
11541;SDS011;5827;49.482;7.716;2023-01-19T03:54:15;17.13;;;11.03;;
11541;SDS011;5827;49.482;7.716;2023-01-19T03:56:18;15.13;;;11.37;;
11541;SDS011;5827;49.482;7.716;2023-01-19T03:58:20;19.27;;;12.67;;
11541;SDS011;5827;49.482;7.716;2023-01-19T04:00:22;18.00;;;12.13;;
11541;SDS011;5827;49.482;7.716;2023-01-19T04:02:26;21.03;;;12.73;;
11541;SDS011;5827;49.482;7.716;2023-01-19T04:04:27;18.93;;;12.23;;
11541;SDS011;5827;49.482;7.716;2023-01-19T04:06:29;17.03;;;12.40;;
11541;SDS011;5827;49.482;7.716;2023-01-19T04:08:31;19.63;;;12.30;;
11541;SDS011;5827;49.482;7.716;2023-01-19T04:10:32;21.80;;;13.73;;
11541;SDS011;5827;49.482;7.716;2023-01-19T04:12:34;17.70;;;11.57;;
11541;SDS011;5827;49.482;7.716;2023-01-19T04:14:35;19.97;;;12.13;;
11541;SDS011;5827;49.482;7.716;2023-01-19T04:16:37;19.47;;;11.63;;
11541;SDS011;5827;49.482;7.716;2023-01-19T04:18:40;16.93;;;10.57;;
11541;SDS011;5827;49.482;7.716;2023-01-19T04:20:42;16.10;;;11.73;;
11541;SDS011;5827;49.482;7.716;2023-01-19T04:22:43;17.67;;;11.20;;
11541;SDS011;5827;49.482;7.716;2023-01-19T04:24:45;15.70;;;10.50;;
11541;SDS011;5827;49.482;7.716;2023-01-19T04:26:46;16.77;;;10.30;;
11541;SDS011;5827;49.482;7.716;2023-01-19T04:28:52;14.23;;;9.80;;
11541;SDS011;5827;49.482;7.716;2023-01-19T04:30:53;16.83;;;10.27;;
11541;SDS011;5827;49.482;7.716;2023-01-19T04:32:56;15.17;;;10.17;;
11541;SDS011;5827;49.482;7.716;2023-01-19T04:35:00;16.37;;;10.37;;
11541;SDS011;5827;49.482;7.716;2023-01-19T04:37:02;15.67;;;10.73;;
11541;SDS011;5827;49.482;7.716;2023-01-19T04:39:03;12.90;;;10.00;;
11541;SDS011;5827;49.482;7.716;2023-01-19T04:41:05;15.40;;;10.33;;
11541;SDS011;5827;49.482;7.716;2023-01-19T04:43:06;19.33;;;11.67;;
11541;SDS011;5827;49.482;7.716;2023-01-19T04:45:09;15.77;;;10.70;;
11541;SDS011;5827;49.482;7.716;2023-01-19T04:47:11;15.63;;;11.17;;
11541;SDS011;5827;49.482;7.716;2023-01-19T04:49:13;15.40;;;10.67;;
11541;SDS011;5827;49.482;7.716;2023-01-19T04:51:16;17.30;;;10.80;;
11541;SDS011;5827;49.482;7.716;2023-01-19T04:53:17;19.23;;;10.30;;
11541;SDS011;5827;49.482;7.716;2023-01-19T04:55:19;14.70;;;10.27;;
11541;SDS011;5827;49.482;7.716;2023-01-19T04:57:20;14.33;;;9.77;;
11541;SDS011;5827;49.482;7.716;2023-01-19T04:59:22;13.13;;;9.80;;
11541;SDS011;5827;49.482;7.716;2023-01-19T05:01:23;12.97;;;9.30;;
11541;SDS011;5827;49.482;7.716;2023-01-19T05:03:25;14.40;;;10.23;;
11541;SDS011;5827;49.482;7.716;2023-01-19T05:05:27;15.73;;;9.83;;
11541;SDS011;5827;49.482;7.716;2023-01-19T05:07:29;14.33;;;10.37;;
11541;SDS011;5827;49.482;7.716;2023-01-19T05:09:31;13.80;;;10.40;;
11541;SDS011;5827;49.482;7.716;2023-01-19T05:11:33;14.00;;;9.80;;
11541;SDS011;5827;49.482;7.716;2023-01-19T05:13:34;12.73;;;9.67;;
11541;SDS011;5827;49.482;7.716;2023-01-19T05:15:36;16.73;;;10.10;;
11541;SDS011;5827;49.482;7.716;2023-01-19T05:17:37;14.70;;;9.80;;
11541;SDS011;5827;49.482;7.716;2023-01-19T05:19:39;14.73;;;10.10;;
11541;SDS011;5827;49.482;7.716;2023-01-19T05:21:40;14.93;;;10.03;;
11541;SDS011;5827;49.482;7.716;2023-01-19T05:23:43;13.93;;;10.03;;
11541;SDS011;5827;49.482;7.716;2023-01-19T05:25:45;16.73;;;10.57;;
11541;SDS011;5827;49.482;7.716;2023-01-19T05:27:46;14.17;;;9.93;;
11541;SDS011;5827;49.482;7.716;2023-01-19T05:29:48;14.03;;;10.17;;
11541;SDS011;5827;49.482;7.716;2023-01-19T05:31:49;15.03;;;10.57;;
11541;SDS011;5827;49.482;7.716;2023-01-19T05:33:51;15.20;;;10.83;;
11541;SDS011;5827;49.482;7.716;2023-01-19T05:35:52;16.97;;;10.83;;
11541;SDS011;5827;49.482;7.716;2023-01-19T05:37:54;18.53;;;11.43;;
11541;SDS011;5827;49.482;7.716;2023-01-19T05:39:57;15.00;;;10.70;;
11541;SDS011;5827;49.482;7.716;2023-01-19T05:41:59;17.97;;;11.50;;
11541;SDS011;5827;49.482;7.716;2023-01-19T05:44:00;17.03;;;11.97;;
11541;SDS011;5827;49.482;7.716;2023-01-19T05:46:02;17.67;;;11.73;;
11541;SDS011;5827;49.482;7.716;2023-01-19T05:48:04;17.53;;;11.77;;
11541;SDS011;5827;49.482;7.716;2023-01-19T05:50:06;15.83;;;11.87;;
11541;SDS011;5827;49.482;7.716;2023-01-19T05:52:08;20.03;;;12.93;;
11541;SDS011;5827;49.482;7.716;2023-01-19T05:54:11;17.70;;;12.37;;
11541;SDS011;5827;49.482;7.716;2023-01-19T05:56:15;19.13;;;13.13;;
11541;SDS011;5827;49.482;7.716;2023-01-19T05:58:16;19.07;;;12.03;;
11541;SDS011;5827;49.482;7.716;2023-01-19T06:00:18;18.07;;;12.90;;
11541;SDS011;5827;49.482;7.716;2023-01-19T06:02:20;19.27;;;12.80;;
11541;SDS011;5827;49.482;7.716;2023-01-19T06:04:27;21.00;;;13.17;;
11541;SDS011;5827;49.482;7.716;2023-01-19T06:06:29;21.47;;;13.63;;
11541;SDS011;5827;49.482;7.716;2023-01-19T06:08:31;19.03;;;12.70;;
11541;SDS011;5827;49.482;7.716;2023-01-19T06:10:32;21.33;;;13.07;;
11541;SDS011;5827;49.482;7.716;2023-01-19T06:12:37;19.30;;;13.30;;
11541;SDS011;5827;49.482;7.716;2023-01-19T06:14:40;17.83;;;12.73;;
11541;SDS011;5827;49.482;7.716;2023-01-19T06:16:41;20.37;;;13.07;;
11541;SDS011;5827;49.482;7.716;2023-01-19T06:18:43;20.93;;;14.63;;
11541;SDS011;5827;49.482;7.716;2023-01-19T06:20:44;19.10;;;13.40;;
11541;SDS011;5827;49.482;7.716;2023-01-19T06:22:46;19.80;;;13.47;;
11541;SDS011;5827;49.482;7.716;2023-01-19T06:24:47;23.20;;;14.70;;
11541;SDS011;5827;49.482;7.716;2023-01-19T06:26:49;20.10;;;13.53;;
11541;SDS011;5827;49.482;7.716;2023-01-19T06:28:52;20.80;;;14.37;;
11541;SDS011;5827;49.482;7.716;2023-01-19T06:30:54;23.23;;;14.03;;
11541;SDS011;5827;49.482;7.716;2023-01-19T06:32:56;20.83;;;13.03;;
11541;SDS011;5827;49.482;7.716;2023-01-19T06:34:57;20.67;;;13.93;;
11541;SDS011;5827;49.482;7.716;2023-01-19T06:36:59;19.53;;;13.23;;
11541;SDS011;5827;49.482;7.716;2023-01-19T06:39:00;18.83;;;12.83;;
11541;SDS011;5827;49.482;7.716;2023-01-19T06:41:04;18.67;;;12.97;;
11541;SDS011;5827;49.482;7.716;2023-01-19T06:43:06;19.73;;;13.87;;
11541;SDS011;5827;49.482;7.716;2023-01-19T06:45:10;21.63;;;13.53;;
11541;SDS011;5827;49.482;7.716;2023-01-19T06:47:11;23.53;;;14.60;;
11541;SDS011;5827;49.482;7.716;2023-01-19T06:49:13;22.97;;;14.57;;
11541;SDS011;5827;49.482;7.716;2023-01-19T06:51:15;18.73;;;13.13;;
11541;SDS011;5827;49.482;7.716;2023-01-19T06:53:16;18.07;;;13.43;;
11541;SDS011;5827;49.482;7.716;2023-01-19T06:55:19;19.77;;;13.90;;
11541;SDS011;5827;49.482;7.716;2023-01-19T06:57:21;18.90;;;12.90;;
11541;SDS011;5827;49.482;7.716;2023-01-19T06:59:24;17.50;;;12.63;;
11541;SDS011;5827;49.482;7.716;2023-01-19T07:01:27;19.30;;;13.23;;
11541;SDS011;5827;49.482;7.716;2023-01-19T07:03:29;19.90;;;13.57;;
11541;SDS011;5827;49.482;7.716;2023-01-19T07:05:31;21.33;;;14.03;;
11541;SDS011;5827;49.482;7.716;2023-01-19T07:07:34;20.53;;;13.50;;
11541;SDS011;5827;49.482;7.716;2023-01-19T07:09:38;19.87;;;13.80;;
11541;SDS011;5827;49.482;7.716;2023-01-19T07:11:40;19.10;;;13.53;;
11541;SDS011;5827;49.482;7.716;2023-01-19T07:13:42;18.03;;;12.57;;
11541;SDS011;5827;49.482;7.716;2023-01-19T07:15:50;19.33;;;13.33;;
11541;SDS011;5827;49.482;7.716;2023-01-19T07:17:55;18.50;;;13.07;;
11541;SDS011;5827;49.482;7.716;2023-01-19T07:19:57;19.97;;;13.73;;
11541;SDS011;5827;49.482;7.716;2023-01-19T07:21:59;21.40;;;14.10;;
11541;SDS011;5827;49.482;7.716;2023-01-19T07:24:01;19.97;;;13.63;;
11541;SDS011;5827;49.482;7.716;2023-01-19T07:26:03;21.63;;;13.90;;
11541;SDS011;5827;49.482;7.716;2023-01-19T07:28:04;21.97;;;15.10;;
11541;SDS011;5827;49.482;7.716;2023-01-19T07:30:06;21.40;;;15.70;;
11541;SDS011;5827;49.482;7.716;2023-01-19T07:32:09;18.70;;;14.13;;
11541;SDS011;5827;49.482;7.716;2023-01-19T07:34:12;20.20;;;13.87;;
11541;SDS011;5827;49.482;7.716;2023-01-19T07:36:13;22.47;;;13.77;;
11541;SDS011;5827;49.482;7.716;2023-01-19T07:38:15;19.67;;;13.10;;
11541;SDS011;5827;49.482;7.716;2023-01-19T07:40:18;22.03;;;14.33;;
11541;SDS011;5827;49.482;7.716;2023-01-19T07:42:19;21.17;;;13.40;;
11541;SDS011;5827;49.482;7.716;2023-01-19T07:44:21;21.23;;;14.40;;
11541;SDS011;5827;49.482;7.716;2023-01-19T07:46:22;19.40;;;13.57;;
11541;SDS011;5827;49.482;7.716;2023-01-19T07:48:24;20.20;;;13.07;;
11541;SDS011;5827;49.482;7.716;2023-01-19T07:50:27;23.00;;;13.77;;
11541;SDS011;5827;49.482;7.716;2023-01-19T07:52:28;18.63;;;12.97;;
11541;SDS011;5827;49.482;7.716;2023-01-19T07:54:30;19.33;;;13.70;;
11541;SDS011;5827;49.482;7.716;2023-01-19T07:56:31;19.83;;;12.93;;
11541;SDS011;5827;49.482;7.716;2023-01-19T07:58:33;22.33;;;13.83;;
11541;SDS011;5827;49.482;7.716;2023-01-19T08:00:35;21.60;;;13.60;;
11541;SDS011;5827;49.482;7.716;2023-01-19T08:02:38;21.30;;;13.80;;
11541;SDS011;5827;49.482;7.716;2023-01-19T08:04:40;19.70;;;13.60;;
11541;SDS011;5827;49.482;7.716;2023-01-19T08:06:43;20.83;;;14.30;;
11541;SDS011;5827;49.482;7.716;2023-01-19T08:08:46;21.60;;;13.40;;
11541;SDS011;5827;49.482;7.716;2023-01-19T08:10:48;19.60;;;13.70;;
11541;SDS011;5827;49.482;7.716;2023-01-19T08:12:50;18.03;;;13.07;;
11541;SDS011;5827;49.482;7.716;2023-01-19T08:14:51;20.40;;;14.30;;
11541;SDS011;5827;49.482;7.716;2023-01-19T08:16:53;18.80;;;13.47;;
11541;SDS011;5827;49.482;7.716;2023-01-19T08:18:58;19.27;;;12.67;;
11541;SDS011;5827;49.482;7.716;2023-01-19T08:21:00;19.57;;;13.40;;
11541;SDS011;5827;49.482;7.716;2023-01-19T08:23:03;20.23;;;13.93;;
11541;SDS011;5827;49.482;7.716;2023-01-19T08:25:05;22.07;;;13.50;;
11541;SDS011;5827;49.482;7.716;2023-01-19T08:27:06;19.47;;;13.20;;
11541;SDS011;5827;49.482;7.716;2023-01-19T08:29:09;21.33;;;13.83;;
11541;SDS011;5827;49.482;7.716;2023-01-19T08:31:10;22.83;;;14.37;;
11541;SDS011;5827;49.482;7.716;2023-01-19T08:33:12;20.33;;;14.00;;
11541;SDS011;5827;49.482;7.716;2023-01-19T08:35:14;18.77;;;13.13;;
11541;SDS011;5827;49.482;7.716;2023-01-19T08:37:15;20.43;;;13.77;;
11541;SDS011;5827;49.482;7.716;2023-01-19T08:39:18;21.53;;;13.83;;
11541;SDS011;5827;49.482;7.716;2023-01-19T08:41:22;22.70;;;13.87;;
11541;SDS011;5827;49.482;7.716;2023-01-19T08:43:24;22.00;;;14.00;;
11541;SDS011;5827;49.482;7.716;2023-01-19T08:45:25;22.07;;;14.17;;
11541;SDS011;5827;49.482;7.716;2023-01-19T08:47:28;23.30;;;14.93;;
11541;SDS011;5827;49.482;7.716;2023-01-19T08:49:31;22.43;;;14.60;;
11541;SDS011;5827;49.482;7.716;2023-01-19T08:51:32;20.33;;;13.83;;
11541;SDS011;5827;49.482;7.716;2023-01-19T08:53:34;19.70;;;13.77;;
11541;SDS011;5827;49.482;7.716;2023-01-19T08:55:37;18.07;;;12.90;;
11541;SDS011;5827;49.482;7.716;2023-01-19T08:57:38;23.50;;;15.13;;
11541;SDS011;5827;49.482;7.716;2023-01-19T08:59:41;21.17;;;15.43;;
11541;SDS011;5827;49.482;7.716;2023-01-19T09:01:46;19.00;;;13.70;;
11541;SDS011;5827;49.482;7.716;2023-01-19T09:03:48;18.33;;;13.07;;
11541;SDS011;5827;49.482;7.716;2023-01-19T09:05:49;18.67;;;12.97;;
11541;SDS011;5827;49.482;7.716;2023-01-19T09:07:51;19.47;;;12.83;;
11541;SDS011;5827;49.482;7.716;2023-01-19T09:09:53;19.80;;;13.07;;
11541;SDS011;5827;49.482;7.716;2023-01-19T09:11:56;19.07;;;13.57;;
11541;SDS011;5827;49.482;7.716;2023-01-19T09:13:58;18.13;;;12.83;;
11541;SDS011;5827;49.482;7.716;2023-01-19T09:16:00;16.63;;;12.33;;
11541;SDS011;5827;49.482;7.716;2023-01-19T09:18:03;19.13;;;11.80;;
11541;SDS011;5827;49.482;7.716;2023-01-19T09:20:06;17.80;;;12.53;;
11541;SDS011;5827;49.482;7.716;2023-01-19T09:22:08;20.63;;;13.10;;
11541;SDS011;5827;49.482;7.716;2023-01-19T09:24:10;16.73;;;12.10;;
11541;SDS011;5827;49.482;7.716;2023-01-19T09:26:12;18.13;;;11.57;;
11541;SDS011;5827;49.482;7.716;2023-01-19T09:28:15;17.50;;;11.63;;
11541;SDS011;5827;49.482;7.716;2023-01-19T09:30:18;14.77;;;11.17;;
11541;SDS011;5827;49.482;7.716;2023-01-19T09:32:20;18.37;;;11.83;;
11541;SDS011;5827;49.482;7.716;2023-01-19T09:34:22;16.83;;;11.47;;
11541;SDS011;5827;49.482;7.716;2023-01-19T09:36:25;16.33;;;12.07;;
11541;SDS011;5827;49.482;7.716;2023-01-19T09:38:26;19.13;;;11.97;;
11541;SDS011;5827;49.482;7.716;2023-01-19T09:40:30;16.87;;;11.50;;
11541;SDS011;5827;49.482;7.716;2023-01-19T09:42:32;15.83;;;11.20;;
11541;SDS011;5827;49.482;7.716;2023-01-19T09:44:43;18.50;;;12.10;;
11541;SDS011;5827;49.482;7.716;2023-01-19T09:46:48;16.17;;;10.90;;
11541;SDS011;5827;49.482;7.716;2023-01-19T09:48:50;17.23;;;11.57;;
11541;SDS011;5827;49.482;7.716;2023-01-19T09:50:53;16.77;;;11.57;;
11541;SDS011;5827;49.482;7.716;2023-01-19T09:53:02;13.77;;;10.83;;
11541;SDS011;5827;49.482;7.716;2023-01-19T09:55:16;18.50;;;11.30;;
11541;SDS011;5827;49.482;7.716;2023-01-19T09:57:21;17.00;;;10.47;;
11541;SDS011;5827;49.482;7.716;2023-01-19T09:59:24;15.63;;;10.13;;
11541;SDS011;5827;49.482;7.716;2023-01-19T10:01:35;15.50;;;11.03;;
11541;SDS011;5827;49.482;7.716;2023-01-19T10:03:41;13.90;;;9.93;;
11541;SDS011;5827;49.482;7.716;2023-01-19T10:05:43;14.57;;;10.77;;
11541;SDS011;5827;49.482;7.716;2023-01-19T10:07:52;13.87;;;10.70;;
11541;SDS011;5827;49.482;7.716;2023-01-19T10:10:08;14.80;;;10.20;;
11541;SDS011;5827;49.482;7.716;2023-01-19T10:12:20;15.27;;;10.70;;
11541;SDS011;5827;49.482;7.716;2023-01-19T10:14:34;17.33;;;10.47;;
11541;SDS011;5827;49.482;7.716;2023-01-19T10:16:44;15.77;;;9.97;;
11541;SDS011;5827;49.482;7.716;2023-01-19T10:18:58;13.93;;;9.77;;
11541;SDS011;5827;49.482;7.716;2023-01-19T10:21:03;11.83;;;9.03;;
11541;SDS011;5827;49.482;7.716;2023-01-19T10:23:15;13.73;;;9.20;;
11541;SDS011;5827;49.482;7.716;2023-01-19T10:25:21;10.63;;;9.00;;
11541;SDS011;5827;49.482;7.716;2023-01-19T10:27:25;13.67;;;8.77;;
11541;SDS011;5827;49.482;7.716;2023-01-19T10:29:30;11.50;;;7.90;;
11541;SDS011;5827;49.482;7.716;2023-01-19T10:31:36;13.07;;;8.10;;
11541;SDS011;5827;49.482;7.716;2023-01-19T10:33:41;10.60;;;7.73;;
11541;SDS011;5827;49.482;7.716;2023-01-19T10:35:43;11.67;;;8.30;;
11541;SDS011;5827;49.482;7.716;2023-01-19T10:37:47;13.00;;;8.63;;
11541;SDS011;5827;49.482;7.716;2023-01-19T10:39:51;11.97;;;8.33;;
11541;SDS011;5827;49.482;7.716;2023-01-19T10:42:02;12.80;;;9.20;;
11541;SDS011;5827;49.482;7.716;2023-01-19T10:44:06;13.23;;;8.80;;
11541;SDS011;5827;49.482;7.716;2023-01-19T10:46:14;11.27;;;8.77;;
11541;SDS011;5827;49.482;7.716;2023-01-19T10:48:21;11.47;;;7.80;;
11541;SDS011;5827;49.482;7.716;2023-01-19T10:50:26;11.27;;;7.20;;
11541;SDS011;5827;49.482;7.716;2023-01-19T10:52:30;10.10;;;7.13;;
11541;SDS011;5827;49.482;7.716;2023-01-19T10:54:35;12.60;;;8.13;;
11541;SDS011;5827;49.482;7.716;2023-01-19T10:56:37;10.10;;;7.50;;
11541;SDS011;5827;49.482;7.716;2023-01-19T10:58:39;11.03;;;7.17;;
11541;SDS011;5827;49.482;7.716;2023-01-19T11:00:43;9.47;;;6.90;;
11541;SDS011;5827;49.482;7.716;2023-01-19T11:02:48;11.47;;;6.77;;
11541;SDS011;5827;49.482;7.716;2023-01-19T11:04:51;12.70;;;6.80;;
11541;SDS011;5827;49.482;7.716;2023-01-19T11:06:58;8.73;;;6.17;;
11541;SDS011;5827;49.482;7.716;2023-01-19T11:09:15;10.07;;;7.10;;
11541;SDS011;5827;49.482;7.716;2023-01-19T11:11:18;12.23;;;7.23;;
11541;SDS011;5827;49.482;7.716;2023-01-19T11:13:22;11.80;;;6.50;;
11541;SDS011;5827;49.482;7.716;2023-01-19T11:15:24;10.23;;;7.17;;
11541;SDS011;5827;49.482;7.716;2023-01-19T11:17:30;10.77;;;7.10;;
11541;SDS011;5827;49.482;7.716;2023-01-19T11:19:33;12.33;;;7.37;;
11541;SDS011;5827;49.482;7.716;2023-01-19T11:21:35;9.03;;;6.40;;
11541;SDS011;5827;49.482;7.716;2023-01-19T11:23:38;9.13;;;6.13;;
11541;SDS011;5827;49.482;7.716;2023-01-19T11:25:45;9.43;;;6.23;;
11541;SDS011;5827;49.482;7.716;2023-01-19T11:27:49;9.10;;;6.63;;
11541;SDS011;5827;49.482;7.716;2023-01-19T11:29:56;9.30;;;6.20;;
11541;SDS011;5827;49.482;7.716;2023-01-19T11:32:09;8.73;;;5.93;;
11541;SDS011;5827;49.482;7.716;2023-01-19T11:34:22;7.30;;;5.33;;
11541;SDS011;5827;49.482;7.716;2023-01-19T11:36:32;11.30;;;6.60;;
11541;SDS011;5827;49.482;7.716;2023-01-19T11:38:40;9.03;;;6.30;;
11541;SDS011;5827;49.482;7.716;2023-01-19T11:40:47;12.70;;;6.40;;
11541;SDS011;5827;49.482;7.716;2023-01-19T11:42:52;9.63;;;6.43;;
11541;SDS011;5827;49.482;7.716;2023-01-19T11:44:57;9.23;;;6.17;;
11541;SDS011;5827;49.482;7.716;2023-01-19T11:47:03;7.77;;;6.03;;
11541;SDS011;5827;49.482;7.716;2023-01-19T11:49:13;10.10;;;6.20;;
11541;SDS011;5827;49.482;7.716;2023-01-19T11:51:22;8.80;;;6.13;;
11541;SDS011;5827;49.482;7.716;2023-01-19T11:53:29;10.80;;;6.50;;
11541;SDS011;5827;49.482;7.716;2023-01-19T11:55:36;10.13;;;6.23;;
11541;SDS011;5827;49.482;7.716;2023-01-19T11:57:42;10.40;;;6.30;;
11541;SDS011;5827;49.482;7.716;2023-01-19T11:59:46;9.43;;;5.57;;
11541;SDS011;5827;49.482;7.716;2023-01-19T12:01:52;7.10;;;5.17;;
11541;SDS011;5827;49.482;7.716;2023-01-19T12:03:57;7.73;;;5.40;;
11541;SDS011;5827;49.482;7.716;2023-01-19T12:06:04;9.40;;;5.47;;
11541;SDS011;5827;49.482;7.716;2023-01-19T12:08:14;11.93;;;5.93;;
11541;SDS011;5827;49.482;7.716;2023-01-19T12:10:21;11.03;;;6.07;;
11541;SDS011;5827;49.482;7.716;2023-01-19T12:12:28;12.37;;;6.97;;
11541;SDS011;5827;49.482;7.716;2023-01-19T12:14:34;7.93;;;5.30;;
11541;SDS011;5827;49.482;7.716;2023-01-19T12:16:40;7.60;;;4.87;;
11541;SDS011;5827;49.482;7.716;2023-01-19T12:18:44;9.20;;;5.70;;